createdAt,value
2019-02-03T04:01:02.901Z,52.90
2019-02-03T04:02:03.023Z,65.20
2019-02-03T04:03:03.354Z,69.20
2019-02-03T04:04:03.142Z,67.80
2019-02-03T04:05:03.563Z,70.40
2019-02-03T04:06:03.204Z,68.30
2019-02-03T04:07:03.971Z,67.80
2019-02-03T04:08:04.035Z,68.80
2019-02-03T04:09:04.201Z,67.10
2019-02-03T04:10:04.540Z,70.50
2019-02-03T04:11:04.337Z,69.10
2019-02-03T04:12:02.493Z,66.00
2019-02-03T04:13:03.527Z,69.40
2019-02-03T04:14:02.955Z,66.80
2019-02-03T04:15:02.859Z,70.70
2019-02-03T04:16:03.345Z,66.30
2019-02-03T04:17:03.975Z,65.10
2019-02-03T04:18:03.611Z,69.40
2019-02-03T04:19:03.990Z,66.90
2019-02-03T04:20:04.027Z,68.10
2019-02-03T04:21:04.086Z,68.40
2019-02-03T04:22:04.460Z,70.10
2019-02-03T04:23:04.310Z,69.20
2019-02-03T04:24:04.387Z,66.20
2019-02-03T04:25:04.697Z,68.10
2019-02-03T04:26:04.884Z,67.10
2019-02-03T04:27:04.952Z,62.60
2019-02-03T04:28:05.155Z,62.30
2019-02-03T04:29:16.710Z,61.50
2019-02-03T04:30:08.900Z,64.50
2019-02-03T04:31:08.188Z,66.60
2019-02-03T04:32:22.473Z,63.30
2019-02-03T04:33:08.242Z,62.80
2019-02-03T04:36:04.907Z,61.60
2019-02-03T04:38:58.339Z,60.90
2019-02-03T04:39:54.173Z,61.90
2019-02-03T04:40:54.265Z,63.70
2019-02-03T04:41:54.340Z,62.90
2019-02-03T04:42:54.807Z,64.10
2019-02-03T04:43:55.168Z,59.40
2019-02-03T04:44:54.933Z,60.30
2019-02-03T04:46:55.541Z,58.20
2019-02-03T04:48:55.673Z,58.60
2019-02-03T04:49:55.785Z,59.50
2019-02-03T04:50:55.853Z,59.30
2019-02-03T04:51:56.580Z,63.10
2019-02-03T04:52:56.606Z,62.70
2019-02-03T04:53:56.413Z,62.00
2019-02-03T04:54:57.245Z,68.00
2019-02-03T04:55:57.089Z,62.10
2019-02-03T04:56:57.270Z,64.10
2019-02-03T04:57:57.164Z,61.10
2019-02-03T04:58:57.560Z,60.20
2019-02-03T04:59:57.329Z,55.80
2019-02-03T05:00:57.791Z,57.10
2019-02-03T05:01:57.358Z,58.60
2019-02-03T05:02:56.350Z,55.90
2019-02-03T05:03:56.311Z,53.50
2019-02-03T05:04:56.171Z,53.30
2019-02-03T05:05:56.300Z,55.60
2019-02-03T05:06:56.600Z,54.20
2019-02-03T05:07:56.669Z,54.30
2019-02-03T05:08:56.834Z,53.10
2019-02-03T05:09:57.093Z,53.30
2019-02-03T05:10:57.239Z,52.20
2019-02-03T05:11:57.452Z,51.90
2019-02-03T05:12:57.842Z,50.40
2019-02-03T05:13:57.979Z,49.50
2019-02-03T05:17:21.663Z,49.20
2019-02-03T05:18:22.514Z,49.40
2019-02-03T05:19:33.212Z,50.10
2019-02-03T05:23:56.405Z,48.30
2019-02-03T05:24:42.851Z,50.30
2019-02-03T05:25:43.080Z,50.00
2019-02-03T05:26:43.075Z,51.90
2019-02-03T05:27:42.988Z,51.10
2019-02-03T05:29:01.639Z,49.90
2019-02-03T05:29:44.947Z,52.10
2019-02-03T05:31:44.873Z,50.90
2019-02-03T05:32:44.063Z,52.70
2019-02-03T05:33:44.257Z,52.40
2019-02-03T05:34:44.379Z,52.00
2019-02-03T05:35:45.099Z,51.80
2019-02-03T05:36:44.922Z,51.80
2019-02-03T05:37:45.535Z,52.30
2019-02-03T05:38:46.625Z,51.70
2019-02-03T05:42:37.719Z,53.90
2019-02-03T05:43:38.163Z,55.30
2019-02-03T05:44:37.678Z,54.20
2019-02-03T05:45:38.461Z,53.70
2019-02-03T05:46:38.207Z,54.60
2019-02-03T05:47:50.067Z,52.30
2019-02-03T05:48:38.539Z,52.00
2019-02-03T05:49:38.642Z,52.90
2019-02-03T05:50:39.868Z,52.80
2019-02-03T05:51:39.248Z,52.90
2019-02-03T05:52:39.910Z,54.00
2019-02-03T05:53:39.286Z,54.40
2019-02-03T05:54:39.669Z,53.80
2019-02-03T05:55:39.886Z,53.80
2019-02-03T05:56:39.522Z,54.80
2019-02-03T05:57:38.946Z,53.20
2019-02-03T05:58:38.013Z,54.10
2019-02-03T05:59:38.652Z,52.00
2019-02-03T06:00:38.613Z,52.90
2019-02-03T06:01:39.379Z,53.90
2019-02-03T06:02:39.293Z,57.90
2019-02-03T06:03:39.471Z,55.00
2019-02-03T06:04:40.660Z,54.90
2019-02-03T06:05:39.729Z,53.40
2019-02-03T06:06:39.869Z,52.80
2019-02-03T06:07:39.961Z,55.20
2019-02-03T06:08:40.362Z,55.80
2019-02-03T06:09:40.358Z,55.40
2019-02-03T06:10:40.427Z,55.10
2019-02-03T06:11:41.619Z,58.10
2019-02-03T06:12:41.801Z,58.10
2019-02-03T06:13:41.797Z,55.60
2019-02-03T06:14:41.164Z,57.40
2019-02-03T06:15:41.421Z,52.80
2019-02-03T06:16:41.708Z,53.00
2019-02-03T06:17:41.269Z,54.80
2019-02-03T06:18:42.386Z,54.10
2019-02-03T06:19:42.648Z,53.80
2019-02-03T06:21:42.559Z,53.10
2019-02-03T06:22:42.941Z,51.60
2019-02-03T06:23:43.016Z,52.80
2019-02-03T06:24:42.549Z,51.00
2019-02-03T06:25:43.561Z,52.40
2019-02-03T06:26:43.318Z,51.90
2019-02-03T06:27:43.162Z,49.90
2019-02-03T06:28:43.406Z,51.20
2019-02-03T06:29:43.589Z,49.00
2019-02-03T06:30:43.889Z,52.50
2019-02-03T06:31:43.747Z,53.40
2019-02-03T06:32:44.237Z,49.50
2019-02-03T06:33:44.867Z,49.20
2019-02-03T06:34:44.819Z,51.10
2019-02-03T06:35:44.954Z,51.50
2019-02-03T06:36:45.056Z,49.30
2019-02-03T06:37:44.935Z,51.70
2019-02-03T06:38:44.989Z,51.50
2019-02-03T06:39:48.590Z,51.90
2019-02-03T06:40:45.284Z,50.20
2019-02-03T06:41:45.694Z,50.40
2019-02-03T06:42:45.793Z,49.80
2019-02-03T06:43:45.760Z,51.80
2019-02-03T06:44:45.988Z,53.60
2019-02-03T06:45:46.075Z,51.60
2019-02-03T06:46:46.216Z,50.40
2019-02-03T06:47:46.491Z,54.30
2019-02-03T06:48:46.457Z,52.40
2019-02-03T06:49:46.648Z,51.20
2019-02-03T06:50:46.690Z,49.80
2019-02-03T06:51:47.382Z,47.00
2019-02-03T06:52:47.251Z,47.70
2019-02-03T06:53:47.594Z,48.90
2019-02-03T06:54:47.307Z,47.40
2019-02-03T06:55:47.729Z,46.30
2019-02-03T06:56:47.538Z,47.20
2019-02-03T06:57:47.800Z,47.80
2019-02-03T06:58:47.885Z,45.50
2019-02-03T06:59:51.039Z,44.60
2019-02-03T07:00:48.527Z,44.20
2019-02-03T07:01:48.581Z,44.80
2019-02-03T07:02:49.024Z,44.10
2019-02-03T07:03:49.072Z,42.60
2019-02-03T07:04:48.985Z,44.50
2019-02-03T07:05:49.148Z,45.60
2019-02-03T07:06:49.758Z,46.60
2019-02-03T07:07:49.889Z,44.70
2019-02-03T07:08:49.936Z,47.20
2019-02-03T07:10:00.049Z,47.60
2019-02-03T07:10:50.066Z,46.50
2019-02-03T07:11:50.493Z,44.90
2019-02-03T07:12:50.772Z,44.20
2019-02-03T07:13:53.217Z,44.20
2019-02-03T07:14:50.633Z,44.60
2019-02-03T07:17:49.276Z,43.60
2019-02-03T07:18:53.019Z,42.10
2019-02-03T07:19:50.195Z,42.60
2019-02-03T07:20:52.194Z,42.70
2019-02-03T07:21:51.012Z,41.30
2019-02-03T07:22:56.099Z,40.20
2019-02-03T07:28:55.791Z,39.70
2019-02-03T07:29:55.298Z,41.00
2019-02-03T07:30:55.656Z,38.80
2019-02-03T07:35:53.255Z,39.10
2019-02-03T07:38:32.183Z,37.90
2019-02-03T07:39:32.931Z,38.60
2019-02-03T07:40:33.540Z,37.40
2019-02-03T07:41:34.371Z,37.90
2019-02-03T07:42:33.588Z,37.10
2019-02-03T07:43:35.803Z,35.80
2019-02-03T07:44:38.325Z,37.30
2019-02-03T07:45:34.234Z,35.70
2019-02-03T07:48:36.836Z,37.20
2019-02-03T07:49:37.046Z,34.20
2019-02-03T07:50:37.538Z,35.20
2019-02-03T07:51:38.142Z,33.40
2019-02-03T07:52:52.070Z,34.40
2019-02-03T07:55:55.050Z,33.30
2019-02-03T07:56:55.788Z,33.60
2019-02-03T07:57:56.385Z,32.80
2019-02-03T07:58:56.474Z,33.30
2019-02-03T08:00:56.381Z,31.20
2019-02-03T08:04:05.164Z,31.80
2019-02-03T08:05:04.945Z,30.70
2019-02-03T08:06:07.692Z,30.30
2019-02-03T08:09:00.558Z,31.30
2019-02-03T08:13:20.965Z,33.40
2019-02-03T08:16:21.736Z,37.40
2019-02-03T08:17:21.439Z,35.20
2019-02-03T08:18:21.395Z,37.10
2019-02-03T08:19:19.671Z,35.60
2019-02-03T08:20:19.590Z,36.40
2019-02-03T08:21:19.688Z,34.30
2019-02-03T08:22:19.928Z,36.00
2019-02-03T08:23:20.101Z,34.20
2019-02-03T08:24:20.213Z,35.40
2019-02-03T08:25:20.348Z,35.20
2019-02-03T08:26:20.498Z,35.40
2019-02-03T08:27:20.665Z,34.90
2019-02-03T08:28:20.871Z,35.40
2019-02-03T08:29:21.081Z,34.30
2019-02-03T08:30:21.205Z,35.10
2019-02-03T08:31:21.303Z,34.80
2019-02-03T08:32:21.473Z,35.80
2019-02-03T08:33:22.871Z,34.80
2019-02-03T08:34:21.926Z,35.80
2019-02-03T08:35:22.775Z,38.10
2019-02-03T08:36:22.177Z,38.50
2019-02-03T08:37:22.385Z,38.60
2019-02-03T08:38:22.483Z,39.70
2019-02-03T08:39:24.293Z,40.20
2019-02-03T08:40:22.958Z,35.70
2019-02-03T08:41:23.035Z,36.50
2019-02-03T08:42:23.276Z,35.90
2019-02-03T08:43:23.429Z,37.30
2019-02-03T08:44:23.505Z,36.70
2019-02-03T08:45:23.715Z,37.10
2019-02-03T08:46:23.889Z,36.60
2019-02-03T08:47:23.997Z,35.30
2019-02-03T08:48:24.171Z,36.50
2019-02-03T08:49:24.340Z,38.20
2019-02-03T08:50:25.082Z,39.00
2019-02-03T08:51:24.631Z,39.30
2019-02-03T08:52:24.873Z,38.60
2019-02-03T08:53:25.025Z,38.10
2019-02-03T08:54:25.172Z,39.00
2019-02-03T08:55:25.296Z,37.00
2019-02-03T08:56:25.483Z,37.00
2019-02-03T08:57:26.170Z,40.50
2019-02-03T08:58:25.778Z,41.70
2019-02-03T08:59:26.020Z,42.60
2019-02-03T09:00:26.067Z,39.00
2019-02-03T09:01:26.312Z,39.90
2019-02-03T09:02:26.407Z,39.80
2019-02-03T09:03:27.305Z,40.30
2019-02-03T09:04:26.771Z,41.70
2019-02-03T09:05:27.016Z,38.10
2019-02-03T09:06:27.774Z,40.50
2019-02-03T09:07:27.333Z,38.10
2019-02-03T09:08:27.859Z,40.80
2019-02-03T09:10:28.031Z,45.30
2019-02-03T09:11:28.843Z,47.30
2019-02-03T09:12:28.767Z,85.50
2019-02-03T09:13:28.321Z,50.10
2019-02-03T09:14:28.500Z,39.50
2019-02-03T09:15:28.632Z,41.20
2019-02-03T09:16:28.770Z,40.50
2019-02-03T09:17:28.864Z,40.20
2019-02-03T09:18:29.047Z,38.20
2019-02-03T09:19:29.254Z,38.90
2019-02-03T09:20:29.557Z,40.90
2019-02-03T09:21:29.629Z,39.10
2019-02-03T09:22:29.829Z,40.00
2019-02-03T09:23:30.007Z,39.70
2019-02-03T09:24:30.054Z,40.90
2019-02-03T09:25:30.267Z,42.60
2019-02-03T09:26:30.432Z,41.90
2019-02-03T09:27:30.536Z,40.70
2019-02-03T09:28:30.633Z,40.60
2019-02-03T09:29:30.862Z,40.50
2019-02-03T09:30:31.052Z,38.40
2019-02-03T09:31:31.239Z,38.70
2019-02-03T09:32:31.444Z,37.30
2019-02-03T09:33:31.578Z,37.10
2019-02-03T09:34:31.714Z,36.70
2019-02-03T09:35:31.860Z,37.30
2019-02-03T09:36:32.001Z,34.30
2019-02-03T09:37:32.168Z,34.70
2019-02-03T09:38:32.681Z,33.60
2019-02-03T09:39:32.480Z,34.00
2019-02-03T09:40:32.617Z,30.90
2019-02-03T09:41:32.800Z,30.40
2019-02-03T09:42:32.892Z,30.40
2019-02-03T09:43:33.082Z,31.20
2019-02-03T09:44:33.256Z,29.60
2019-02-03T09:45:33.509Z,31.10
2019-02-03T09:46:33.657Z,29.50
2019-02-03T09:47:33.781Z,27.60
2019-02-03T09:48:33.942Z,29.70
2019-02-03T09:49:34.145Z,27.30
2019-02-03T09:50:34.282Z,26.80
2019-02-03T09:51:34.414Z,25.50
2019-02-03T09:52:34.583Z,25.20
2019-02-03T09:53:34.790Z,26.00
2019-02-03T09:54:35.021Z,26.70
2019-02-03T09:55:35.208Z,26.20
2019-02-03T09:56:35.299Z,26.30
2019-02-03T09:57:35.432Z,27.40
2019-02-03T09:58:35.528Z,26.10
2019-02-03T09:59:35.851Z,26.20
2019-02-03T10:00:35.856Z,25.40
2019-02-03T10:01:36.085Z,26.30
2019-02-03T10:02:36.230Z,26.70
2019-02-03T10:03:36.421Z,27.50
2019-02-03T10:04:36.594Z,27.10
2019-02-03T10:05:37.268Z,26.00
2019-02-03T10:06:36.812Z,25.60
2019-02-03T10:07:37.041Z,27.50
2019-02-03T10:08:40.743Z,24.50
2019-02-03T10:09:48.547Z,25.70
2019-02-03T10:11:39.942Z,24.90
2019-02-03T10:12:40.846Z,24.30
2019-02-03T10:13:40.648Z,26.00
2019-02-03T10:14:39.653Z,24.70
2019-02-03T10:15:48.342Z,24.40
2019-02-03T10:19:27.718Z,25.90
2019-02-03T10:20:27.706Z,24.00
2019-02-03T10:23:28.499Z,24.10
2019-02-03T10:24:26.410Z,24.10
2019-02-03T10:25:26.806Z,22.10
2019-02-03T10:26:26.785Z,21.70
2019-02-03T10:27:26.975Z,24.50
2019-02-03T10:28:27.043Z,22.00
2019-02-03T10:29:27.336Z,22.00
2019-02-03T10:30:28.058Z,22.70
2019-02-03T10:31:27.602Z,24.40
2019-02-03T10:32:30.269Z,24.20
2019-02-03T10:33:27.854Z,24.60
2019-02-03T10:34:29.624Z,24.60
2019-02-03T10:35:28.235Z,23.60
2019-02-03T10:36:28.506Z,23.90
2019-02-03T10:37:28.595Z,22.90
2019-02-03T10:38:28.769Z,22.20
2019-02-03T10:39:28.955Z,25.80
2019-02-03T10:40:29.131Z,24.50
2019-02-03T10:41:30.484Z,22.30
2019-02-03T10:42:29.786Z,21.50
2019-02-03T10:43:30.787Z,21.60
2019-02-03T10:44:32.787Z,19.80
2019-02-03T10:45:29.954Z,19.70
2019-02-03T10:46:30.192Z,21.60
2019-02-03T10:47:30.571Z,20.60
2019-02-03T10:48:30.501Z,19.90
2019-02-03T10:49:30.835Z,22.40
2019-02-03T10:53:24.632Z,20.50
2019-02-03T10:54:26.219Z,21.00
2019-02-03T10:55:25.606Z,21.30
2019-02-03T10:56:25.606Z,21.40
2019-02-03T10:57:28.267Z,22.80
2019-02-03T10:58:27.446Z,22.40
2019-02-03T10:59:27.774Z,22.00
2019-02-03T11:03:02.510Z,23.30
2019-02-03T11:08:27.260Z,22.40
2019-02-03T11:09:40.200Z,22.80
2019-02-03T11:10:30.074Z,24.70
2019-02-03T11:11:36.470Z,23.70
2019-02-03T11:12:27.867Z,22.90
2019-02-03T11:13:27.355Z,22.60
2019-02-03T11:14:26.730Z,23.20
2019-02-03T11:15:26.493Z,24.80
2019-02-03T11:16:27.184Z,23.00
2019-02-03T11:17:38.695Z,23.80
2019-02-03T11:20:30.862Z,22.30
2019-02-03T11:23:37.314Z,25.20
2019-02-03T11:24:37.920Z,28.40
2019-02-03T11:25:38.961Z,30.40
2019-02-03T11:26:38.228Z,30.20
2019-02-03T11:27:38.468Z,26.20
2019-02-03T11:28:38.411Z,25.20
2019-02-03T11:29:38.799Z,25.10
2019-02-03T11:30:39.165Z,24.00
2019-02-03T11:32:40.397Z,27.40
2019-02-03T11:33:41.440Z,23.70
2019-02-03T11:34:40.096Z,22.20
2019-02-03T11:35:44.399Z,22.20
2019-02-03T11:36:39.438Z,22.10
2019-02-03T11:37:39.128Z,22.10
2019-02-03T11:38:37.877Z,20.60
2019-02-03T11:39:38.169Z,21.60
2019-02-03T11:40:38.303Z,20.80
2019-02-03T11:41:48.742Z,20.80
2019-02-03T11:42:38.708Z,21.40
2019-02-03T11:43:38.882Z,20.40
2019-02-03T11:44:39.128Z,23.20
2019-02-03T11:45:39.093Z,20.70
2019-02-03T11:46:39.138Z,20.80
2019-02-03T11:47:39.454Z,20.40
2019-02-03T11:48:39.396Z,31.80
2019-02-03T11:49:39.618Z,25.00
2019-02-03T11:50:39.734Z,23.40
2019-02-03T11:51:40.017Z,23.30
2019-02-03T11:52:40.049Z,23.10
2019-02-03T11:53:40.336Z,22.60
2019-02-03T11:54:40.315Z,19.90
2019-02-03T11:55:40.805Z,20.70
2019-02-03T11:56:40.892Z,21.80
2019-02-03T11:57:41.383Z,20.30
2019-02-03T11:58:41.097Z,21.00
2019-02-03T11:59:41.195Z,20.60
2019-02-03T12:00:41.452Z,20.50
2019-02-03T12:01:41.583Z,20.60
2019-02-03T12:02:42.364Z,20.40
2019-02-03T12:03:42.107Z,20.60
2019-02-03T12:04:42.085Z,19.30
2019-02-03T12:05:42.284Z,19.30
2019-02-03T12:06:43.380Z,18.60
2019-02-03T12:07:42.628Z,20.10
2019-02-03T12:08:42.864Z,19.80
2019-02-03T12:09:42.909Z,18.90
2019-02-03T12:10:43.181Z,18.90
2019-02-03T12:11:43.195Z,19.80
2019-02-03T12:12:43.660Z,17.90
2019-02-03T12:13:43.671Z,18.60
2019-02-03T12:14:44.068Z,17.80
2019-02-03T12:15:44.011Z,19.10
2019-02-03T12:16:44.107Z,18.40
2019-02-03T12:17:44.211Z,19.30
2019-02-03T12:18:44.441Z,18.60
2019-02-03T12:19:44.632Z,19.00
2019-02-03T12:20:46.805Z,18.40
2019-02-03T12:21:44.659Z,18.30
2019-02-03T12:22:45.564Z,18.60
2019-02-03T12:23:46.377Z,18.90
2019-02-03T12:24:45.201Z,19.30
2019-02-03T12:25:45.622Z,19.10
2019-02-03T12:26:46.509Z,19.20
2019-02-03T12:27:46.056Z,18.20
2019-02-03T12:28:46.365Z,18.60
2019-02-03T12:29:46.157Z,21.10
2019-02-03T12:30:46.914Z,26.40
2019-02-03T12:31:46.936Z,29.20
2019-02-03T12:33:00.571Z,39.50
2019-02-03T14:36:40.482Z,37.40
2019-02-03T14:37:41.250Z,36.70
2019-02-03T14:38:42.675Z,69.70
2019-02-03T14:39:41.866Z,35.00
2019-02-03T14:40:39.669Z,27.40
2019-02-03T14:41:39.865Z,26.00
2019-02-03T14:42:47.716Z,26.30
2019-02-03T14:43:40.146Z,23.00
2019-02-03T14:44:40.410Z,22.80
2019-02-03T14:45:40.560Z,18.50
2019-02-03T14:46:40.682Z,16.30
2019-02-03T14:47:40.911Z,15.30
2019-02-03T14:48:41.025Z,23.30
2019-02-03T14:49:41.332Z,26.60
2019-02-03T14:50:41.476Z,19.20
2019-02-03T14:51:41.607Z,16.70
2019-02-03T14:52:41.776Z,16.70
2019-02-03T14:53:41.921Z,21.50
2019-02-03T14:54:42.099Z,25.10
2019-02-03T14:55:42.324Z,21.40
2019-02-03T14:56:42.403Z,20.00
2019-02-03T14:57:42.514Z,31.30
2019-02-03T14:58:42.681Z,32.80
2019-02-03T14:59:42.913Z,17.50
2019-02-03T15:00:43.306Z,19.70
2019-02-03T15:01:43.213Z,16.80
2019-02-03T15:04:18.334Z,14.90
2019-02-03T15:06:17.960Z,15.70
2019-02-03T15:07:18.070Z,12.40
2019-02-03T15:08:18.164Z,12.10
2019-02-03T15:09:18.320Z,13.90
2019-02-03T15:10:18.466Z,13.80
2019-02-03T15:11:19.432Z,12.80
2019-02-03T15:12:18.805Z,13.10
2019-02-03T15:13:18.943Z,16.50
2019-02-03T15:14:19.116Z,12.50
2019-02-03T15:15:19.268Z,13.60
2019-02-03T15:16:19.476Z,17.60
2019-02-03T15:17:19.599Z,13.80
2019-02-03T15:18:19.805Z,13.40
2019-02-03T15:19:19.948Z,11.20
2019-02-03T15:20:20.136Z,11.10
2019-02-03T15:21:20.296Z,14.70
2019-02-03T15:22:20.407Z,14.30
2019-02-03T15:23:20.598Z,13.90
2019-02-03T15:24:20.743Z,12.10
2019-02-03T15:25:20.940Z,11.70
2019-02-03T15:26:21.092Z,14.60
2019-02-03T15:27:21.255Z,12.30
2019-02-03T15:28:21.355Z,15.30
2019-02-03T15:29:21.582Z,17.30
2019-02-03T15:30:21.667Z,17.50
2019-02-03T15:31:21.908Z,14.40
2019-02-03T15:32:22.029Z,15.40
2019-02-03T15:33:22.162Z,18.70
2019-02-03T15:34:22.343Z,11.60
2019-02-03T15:35:22.549Z,22.90
2019-02-03T15:36:22.707Z,12.20
2019-02-03T15:37:22.850Z,14.40
2019-02-03T15:38:23.021Z,12.20
2019-02-03T15:39:23.239Z,10.90
2019-02-03T15:40:23.383Z,11.40
2019-02-03T15:41:23.526Z,19.20
2019-02-03T15:42:23.771Z,11.70
2019-02-03T15:43:25.431Z,10.50
2019-02-03T15:44:23.995Z,12.60
2019-02-03T15:45:24.233Z,12.00
2019-02-03T15:46:24.406Z,12.90
2019-02-03T15:47:24.585Z,10.50
2019-02-03T15:48:24.698Z,10.90
2019-02-03T15:49:24.967Z,10.40
2019-02-03T15:50:25.054Z,9.90
2019-02-03T15:51:25.124Z,9.70
2019-02-03T15:52:25.294Z,27.10
2019-02-03T15:53:25.482Z,11.00
2019-02-03T15:54:25.645Z,9.00
2019-02-03T15:55:25.820Z,9.70
2019-02-03T15:56:25.967Z,15.60
2019-02-03T15:57:26.169Z,10.80
2019-02-03T15:58:26.299Z,12.30
2019-02-03T15:59:26.534Z,15.90
2019-02-03T16:00:26.648Z,30.20
2019-02-03T16:01:27.360Z,11.20
2019-02-03T16:04:25.610Z,11.80
2019-02-03T16:07:45.901Z,10.40
2019-02-03T16:08:46.434Z,9.80
2019-02-03T16:09:46.191Z,8.90
2019-02-03T16:13:36.445Z,10.10
2019-02-03T16:19:00.065Z,12.80
2019-02-03T16:20:00.457Z,8.30
2019-02-03T16:21:02.059Z,14.10
2019-02-03T16:22:06.833Z,17.20
2019-02-03T16:24:53.565Z,30.10
2019-02-03T16:25:57.607Z,26.40
2019-02-03T16:27:03.025Z,22.50
2019-02-03T16:27:57.085Z,12.80
2019-02-03T16:28:56.226Z,22.80
2019-02-03T16:29:54.233Z,54.20
2019-02-03T16:30:54.365Z,38.20
2019-02-03T16:31:54.476Z,30.90
2019-02-03T16:32:54.590Z,29.10
2019-02-03T16:33:54.912Z,35.70
2019-02-03T16:34:55.013Z,31.70
2019-02-03T16:35:55.129Z,27.70
2019-02-03T16:36:55.346Z,24.20
2019-02-03T16:37:55.585Z,38.20
2019-02-03T16:38:55.695Z,21.00
2019-02-03T16:39:55.813Z,17.00
2019-02-03T16:40:55.950Z,24.50
2019-02-03T16:41:56.067Z,35.40
2019-02-03T16:42:56.305Z,24.60
2019-02-03T16:43:56.479Z,25.60
2019-02-03T16:44:56.652Z,23.40
2019-02-03T16:45:56.839Z,23.50
2019-02-03T16:46:56.964Z,18.10
2019-02-03T16:47:57.264Z,28.60
2019-02-03T16:48:57.415Z,30.80
2019-02-03T16:49:57.475Z,25.30
2019-02-03T16:50:57.657Z,14.00
2019-02-03T16:51:57.881Z,13.60
2019-02-03T16:52:58.012Z,20.20
2019-02-03T16:53:58.187Z,18.00
2019-02-03T16:54:58.318Z,15.80
2019-02-03T16:55:58.477Z,18.30
2019-02-03T16:56:58.580Z,19.90
2019-02-03T16:57:58.778Z,20.20
2019-02-03T16:58:58.865Z,15.60
2019-02-03T16:59:59.137Z,16.30
2019-02-03T17:00:59.258Z,16.80
2019-02-03T17:01:59.397Z,14.10
2019-02-03T17:02:59.622Z,13.30
2019-02-03T17:03:59.741Z,13.50
2019-02-03T17:05:00.763Z,15.00
2019-02-03T17:05:59.983Z,11.30
2019-02-03T17:07:00.203Z,11.60
2019-02-03T17:08:00.482Z,12.10
2019-02-03T17:09:00.564Z,12.00
2019-02-03T17:10:00.687Z,9.10
2019-02-03T17:11:00.891Z,10.20
2019-02-03T17:12:01.028Z,12.20
2019-02-03T17:13:01.133Z,11.70
2019-02-03T17:14:01.254Z,11.90
2019-02-03T17:15:01.436Z,11.10
2019-02-03T17:16:02.377Z,10.30
2019-02-03T17:17:01.780Z,11.10
2019-02-03T17:18:01.923Z,12.40
2019-02-03T17:19:02.192Z,10.30
2019-02-03T17:20:02.252Z,9.70
2019-02-03T17:21:02.565Z,8.90
2019-02-03T17:22:02.610Z,10.40
2019-02-03T17:23:02.797Z,11.00
2019-02-03T17:24:03.584Z,12.60
2019-02-03T17:25:03.166Z,11.50
2019-02-03T17:26:03.232Z,14.50
2019-02-03T17:27:03.463Z,14.30
2019-02-03T17:28:03.638Z,13.70
2019-02-03T17:29:03.732Z,11.80
2019-02-03T17:30:03.964Z,12.40
2019-02-03T17:31:04.053Z,11.60
2019-02-03T17:32:04.185Z,10.30
2019-02-03T17:33:04.439Z,13.90
2019-02-03T17:34:04.505Z,13.20
2019-02-03T17:35:04.689Z,15.00
2019-02-03T17:36:04.849Z,14.80
2019-02-03T17:37:05.010Z,13.30
2019-02-03T17:38:05.164Z,13.90
2019-02-03T17:39:05.324Z,11.50
2019-02-03T17:40:05.498Z,14.90
2019-02-03T17:41:06.440Z,15.10
2019-02-03T17:42:08.706Z,13.20
2019-02-03T17:43:06.030Z,14.10
2019-02-03T17:44:12.840Z,15.30
2019-02-03T17:45:06.279Z,16.70
2019-02-03T17:46:06.558Z,16.50
2019-02-03T17:47:06.644Z,17.70
2019-02-03T17:48:06.801Z,14.10
2019-02-03T17:49:07.065Z,14.00
2019-02-03T17:50:07.317Z,12.10
2019-02-03T17:51:07.282Z,12.90
2019-02-03T17:52:07.464Z,13.20
2019-02-03T17:53:08.090Z,12.30
2019-02-03T17:54:07.785Z,10.40
2019-02-03T17:55:08.025Z,11.10
2019-02-03T17:56:08.388Z,11.60
2019-02-03T17:57:08.277Z,10.90
2019-02-03T17:58:08.460Z,10.60
2019-02-03T17:59:08.588Z,12.50
2019-02-03T18:00:08.716Z,11.70
2019-02-03T18:01:08.973Z,11.80
2019-02-03T18:02:09.196Z,12.40
2019-02-03T18:03:09.285Z,13.70
2019-02-03T18:04:09.533Z,24.70
2019-02-03T18:05:09.674Z,55.60
2019-02-03T18:06:09.833Z,20.60
2019-02-03T18:07:09.836Z,14.10
2019-02-03T18:08:10.004Z,14.70
2019-02-03T18:09:10.263Z,15.30
2019-02-03T18:10:10.389Z,18.80
2019-02-03T18:11:10.601Z,22.70
2019-02-03T18:12:19.155Z,31.80
2019-02-03T18:13:13.020Z,16.50
2019-02-03T18:14:23.045Z,25.60
2019-02-03T18:16:12.489Z,37.10
2019-02-03T18:17:11.673Z,35.10
2019-02-03T18:18:11.583Z,31.00
2019-02-03T18:19:11.767Z,35.40
2019-02-03T18:20:12.906Z,36.00
2019-02-03T18:21:12.324Z,27.60
2019-02-03T18:22:12.419Z,23.10
2019-02-03T18:23:13.840Z,24.20
2019-02-03T18:24:13.352Z,16.70
2019-02-03T18:25:12.852Z,18.40
2019-02-03T18:26:12.970Z,23.40
2019-02-03T18:27:13.109Z,24.10
2019-02-03T18:28:13.289Z,31.60
2019-02-03T18:29:13.471Z,36.30
2019-02-03T18:30:13.643Z,34.20
2019-02-03T18:31:13.750Z,50.40
2019-02-03T18:32:14.662Z,38.50
2019-02-03T18:33:14.099Z,36.10
2019-02-03T18:34:14.271Z,39.00
2019-02-03T18:35:14.394Z,54.00
2019-02-03T18:36:14.595Z,33.70
2019-02-03T18:37:14.718Z,23.90
2019-02-03T18:38:14.853Z,25.40
2019-02-03T18:39:14.981Z,24.50
2019-02-03T18:40:15.174Z,26.90
2019-02-03T18:41:15.376Z,35.40
2019-02-03T18:42:15.446Z,66.80
2019-02-03T18:43:15.717Z,62.30
2019-02-03T18:44:15.809Z,50.00
2019-02-03T18:45:15.941Z,43.40
2019-02-03T18:46:16.102Z,41.70
2019-02-03T18:47:16.267Z,52.40
2019-02-03T18:48:16.451Z,52.10
2019-02-03T18:49:16.628Z,47.50
2019-02-03T18:50:16.722Z,31.50
2019-02-03T18:51:17.386Z,27.40
2019-02-03T18:52:16.993Z,34.90
2019-02-03T18:53:17.246Z,33.00
2019-02-03T18:54:17.384Z,30.40
2019-02-03T18:55:17.469Z,29.30
2019-02-03T18:56:17.690Z,33.00
2019-02-03T18:57:17.887Z,35.60
2019-02-03T18:58:18.071Z,28.90
2019-02-03T18:59:18.301Z,27.90
2019-02-03T19:00:18.331Z,27.00
2019-02-03T19:01:18.441Z,26.00
2019-02-03T19:02:18.569Z,24.50
2019-02-03T19:03:18.744Z,21.50
2019-02-03T19:04:18.864Z,26.30
2019-02-03T19:05:19.074Z,16.40
2019-02-03T19:06:19.304Z,24.40
2019-02-03T19:07:19.430Z,28.70
2019-02-03T19:08:19.605Z,25.60
2019-02-03T19:09:19.734Z,23.10
2019-02-03T19:10:19.836Z,28.50
2019-02-03T19:11:20.097Z,13.90
2019-02-03T19:12:20.191Z,12.00
2019-02-03T19:13:20.443Z,13.70
2019-02-03T19:14:20.545Z,12.30
2019-02-03T19:15:20.694Z,13.10
2019-02-03T19:16:20.939Z,16.00
2019-02-03T19:17:21.042Z,15.30
2019-02-03T19:18:21.246Z,11.30
2019-02-03T19:19:21.404Z,12.40
2019-02-03T19:20:21.526Z,15.30
2019-02-03T19:21:22.721Z,22.30
2019-02-03T19:22:21.945Z,17.80
2019-02-03T19:23:23.329Z,27.50
2019-02-03T19:24:32.181Z,26.00
2019-02-03T19:25:23.002Z,21.20
2019-02-03T19:26:22.499Z,21.90
2019-02-03T19:27:22.655Z,18.80
2019-02-03T19:28:22.775Z,23.00
2019-02-03T19:29:22.935Z,19.60
2019-02-03T19:30:23.109Z,15.40
2019-02-03T19:31:23.208Z,18.00
2019-02-03T19:32:23.428Z,16.60
2019-02-03T19:33:23.537Z,11.40
2019-02-03T19:34:23.711Z,14.20
2019-02-03T19:35:23.899Z,17.50
2019-02-03T19:36:24.014Z,18.90
2019-02-03T19:37:24.185Z,18.70
2019-02-03T19:38:24.386Z,17.90
2019-02-03T19:39:24.453Z,14.50
2019-02-03T19:40:24.715Z,14.50
2019-02-03T19:41:24.859Z,12.70
2019-02-03T19:42:25.012Z,12.90
2019-02-03T19:43:25.246Z,12.60
2019-02-03T19:44:25.309Z,13.00
2019-02-03T19:45:25.459Z,11.50
2019-02-03T19:46:25.577Z,13.20
2019-02-03T19:47:25.818Z,10.90
2019-02-03T19:48:26.050Z,10.40
2019-02-03T19:49:26.043Z,10.50
2019-02-03T19:50:26.237Z,9.40
2019-02-03T19:51:26.391Z,9.40
2019-02-03T19:52:26.556Z,11.40
2019-02-03T19:53:27.390Z,12.40
2019-02-03T19:54:26.773Z,10.90
2019-02-03T19:55:26.963Z,11.50
2019-02-03T19:56:27.206Z,12.30
2019-02-03T19:57:27.290Z,12.70
2019-02-03T19:58:27.576Z,9.50
2019-02-03T19:59:27.617Z,10.30
2019-02-03T20:00:27.812Z,9.60
2019-02-03T20:01:27.951Z,11.00
2019-02-03T20:02:28.138Z,9.60
2019-02-03T20:03:28.543Z,9.80
2019-02-03T20:04:28.386Z,9.80
2019-02-03T20:05:28.640Z,13.20
2019-02-03T20:06:28.840Z,9.60
2019-02-03T20:07:28.928Z,8.80
2019-02-03T20:08:29.866Z,10.10
2019-02-03T20:09:29.237Z,12.00
2019-02-03T20:10:29.367Z,10.20
2019-02-03T20:11:29.479Z,12.10
2019-02-03T20:12:29.693Z,16.50
2019-02-03T20:13:29.855Z,18.50
2019-02-03T20:14:30.037Z,14.80
2019-02-03T20:15:30.179Z,16.50
2019-02-03T20:16:30.337Z,19.30
2019-02-03T20:17:30.486Z,17.30
2019-02-03T20:18:30.724Z,19.70
2019-02-03T20:19:30.794Z,19.00
2019-02-03T20:20:30.948Z,13.80
2019-02-03T20:21:31.217Z,12.80